createdAt,value
2019-04-25T00:02:06.612Z,11.40
2019-04-25T00:04:37.004Z,11.30
2019-04-25T00:07:06.768Z,11.30
2019-04-25T00:09:51.629Z,11.20
2019-04-25T00:12:22.315Z,11.20
2019-04-25T00:14:52.061Z,11.10
2019-04-25T00:23:34.166Z,10.80
2019-04-25T00:26:21.141Z,10.70
2019-04-25T00:28:52.380Z,10.60
2019-04-25T00:31:22.478Z,10.60
2019-04-25T00:33:53.307Z,10.50
2019-04-25T00:36:23.036Z,10.40
2019-04-25T00:38:53.315Z,10.40
2019-04-25T00:41:23.011Z,10.30
2019-04-25T00:43:52.702Z,10.30
2019-04-25T00:46:22.595Z,10.30
2019-04-25T00:48:52.724Z,10.20
2019-04-25T00:51:22.468Z,10.20
2019-04-25T00:53:54.684Z,10.10
2019-04-25T00:56:23.629Z,10.10
2019-04-25T00:59:22.096Z,10.10
2019-04-25T01:02:11.474Z,10.00
2019-04-25T01:04:41.959Z,10.00
2019-04-25T01:07:12.682Z,10.00
2019-04-25T01:09:42.502Z,10.00
2019-04-25T01:12:12.952Z,9.90
2019-04-25T01:14:42.688Z,9.90
2019-04-25T01:17:12.443Z,9.80
2019-04-25T01:19:42.261Z,9.80
2019-04-25T01:22:14.392Z,9.80
2019-04-25T01:24:45.585Z,9.80
2019-04-25T01:27:15.526Z,9.70
2019-04-25T01:29:46.314Z,9.70
2019-04-25T01:32:19.147Z,9.70
2019-04-25T01:35:00.093Z,9.70
2019-04-25T01:37:57.612Z,9.60
2019-04-25T01:41:01.154Z,9.60
2019-04-25T01:43:36.646Z,9.60
2019-04-25T01:46:06.435Z,9.50
2019-04-25T01:48:36.147Z,9.50
2019-04-25T01:51:05.906Z,9.50
2019-04-25T01:53:35.729Z,9.50
2019-04-25T01:56:07.747Z,9.50
2019-04-25T01:58:36.935Z,9.40
2019-04-25T02:01:06.751Z,9.40
2019-04-25T02:03:36.611Z,9.40
2019-04-25T02:06:06.373Z,9.40
2019-04-25T02:08:36.158Z,9.40
2019-04-25T02:11:24.880Z,9.30
2019-04-25T02:13:54.973Z,9.30
2019-04-25T02:16:25.505Z,9.30
2019-04-25T02:22:27.157Z,9.20
2019-04-25T02:24:57.104Z,9.10
2019-04-25T02:27:27.015Z,9.10
2019-04-25T02:29:57.262Z,9.00
2019-04-25T02:32:27.066Z,9.00
2019-04-25T02:35:00.538Z,9.00
2019-04-25T02:37:28.193Z,9.00
2019-04-25T02:40:00.021Z,9.00
2019-04-25T02:42:29.324Z,8.90
2019-04-25T02:45:08.854Z,8.80
2019-04-25T02:47:57.753Z,8.80
2019-04-25T02:50:45.895Z,8.80
2019-04-25T02:53:36.604Z,8.70
2019-04-25T02:56:08.040Z,8.70
2019-04-25T02:58:35.290Z,8.70
2019-04-25T03:01:16.205Z,8.70
2019-04-25T03:03:38.746Z,8.70
2019-04-25T03:06:09.668Z,8.70
2019-04-25T03:08:39.675Z,8.70
2019-04-25T03:11:09.540Z,8.60
2019-04-25T03:13:39.515Z,8.60
2019-04-25T03:16:11.007Z,8.60
2019-04-25T03:19:14.956Z,8.60
2019-04-25T03:21:45.826Z,8.60
2019-04-25T03:24:16.860Z,8.60
2019-04-25T03:26:46.766Z,8.60
2019-04-25T03:29:16.605Z,8.60
2019-04-25T03:31:46.374Z,8.60
2019-04-25T03:34:20.255Z,8.60
2019-04-25T03:36:47.415Z,8.60
2019-04-25T03:39:17.211Z,8.60
2019-04-25T03:41:47.179Z,8.60
2019-04-25T03:44:16.942Z,8.50
2019-04-25T03:46:46.681Z,8.50
2019-04-25T03:49:16.498Z,8.40
2019-04-25T03:51:46.324Z,8.40
2019-04-25T03:54:16.047Z,8.50
2019-04-25T03:56:53.600Z,8.40
2019-04-25T03:59:17.534Z,8.40
2019-04-25T04:01:47.232Z,8.40
2019-04-25T04:04:17.076Z,8.40
2019-04-25T04:06:46.833Z,8.40
2019-04-25T04:09:16.539Z,8.30
2019-04-25T04:11:46.447Z,8.30
2019-04-25T04:14:16.121Z,8.30
2019-04-25T04:17:06.379Z,8.30
2019-04-25T04:20:26.761Z,8.20
2019-04-25T04:23:11.273Z,8.30
2019-04-25T04:25:41.177Z,8.30
2019-04-25T04:28:11.822Z,8.40
2019-04-25T04:30:41.612Z,8.40
2019-04-25T04:37:38.767Z,8.40
2019-04-25T04:40:09.573Z,8.40
2019-04-25T04:42:39.560Z,8.50
2019-04-25T04:45:10.205Z,8.50
2019-04-25T04:47:40.001Z,8.50
2019-04-25T04:50:10.587Z,8.50
2019-04-25T04:52:40.306Z,8.50
2019-04-25T04:55:11.610Z,8.60
2019-04-25T04:57:45.732Z,8.60
2019-04-25T05:00:15.626Z,8.60
2019-04-25T05:02:57.891Z,8.50
2019-04-25T05:05:55.681Z,8.60
2019-04-25T05:08:31.540Z,8.60
2019-04-25T05:11:01.330Z,8.60
2019-04-25T05:13:31.081Z,8.70
2019-04-25T05:16:00.862Z,8.80
2019-04-25T05:18:37.073Z,8.90
2019-04-25T05:21:02.155Z,9.00
2019-04-25T05:23:31.895Z,9.10
2019-04-25T05:26:01.682Z,9.10
2019-04-25T05:28:31.402Z,9.10
2019-04-25T05:31:29.156Z,9.20
2019-04-25T05:33:59.038Z,9.30
2019-04-25T05:36:37.924Z,9.40
2019-04-25T05:39:11.034Z,9.40
2019-04-25T05:41:58.502Z,9.50
2019-04-25T05:44:28.298Z,9.50
2019-04-25T05:46:58.104Z,9.50
2019-04-25T05:49:27.851Z,9.60
2019-04-25T05:51:57.599Z,9.60
2019-04-25T05:54:27.346Z,9.70
2019-04-25T05:56:57.125Z,9.80
2019-04-25T05:59:26.980Z,9.90
2019-04-25T06:01:56.641Z,9.90
2019-04-25T06:04:27.313Z,10.00
2019-04-25T06:06:56.996Z,10.00
2019-04-25T06:09:48.800Z,10.10
2019-04-25T06:12:28.780Z,10.20
2019-04-25T06:14:58.717Z,10.40
2019-04-25T06:17:37.000Z,10.50
2019-04-25T06:20:08.102Z,10.70
2019-04-25T06:22:58.348Z,10.80
2019-04-25T06:25:32.703Z,10.90
2019-04-25T06:28:01.440Z,11.10
2019-04-25T06:30:31.688Z,11.30
2019-04-25T06:33:03.208Z,11.40
2019-04-25T06:35:35.513Z,11.50
2019-04-25T06:38:04.967Z,11.70
2019-04-25T06:40:34.753Z,11.80
2019-04-25T06:43:04.586Z,11.90
2019-04-25T06:45:51.832Z,12.00
2019-04-25T06:48:27.673Z,12.00
2019-04-25T06:50:57.391Z,12.00
2019-04-25T06:53:27.039Z,12.00
2019-04-25T06:55:56.804Z,12.00
2019-04-25T06:58:27.547Z,12.10
2019-04-25T07:01:00.840Z,12.20
2019-04-25T07:03:29.466Z,12.50
2019-04-25T07:05:59.199Z,12.70
2019-04-25T07:08:29.139Z,12.90
2019-04-25T07:10:58.909Z,13.00
2019-04-25T07:13:28.595Z,13.00
2019-04-25T07:15:58.323Z,13.00
2019-04-25T07:18:31.585Z,13.00
2019-04-25T07:20:59.397Z,13.10
2019-04-25T07:23:30.045Z,13.20
2019-04-25T07:26:06.257Z,13.30
2019-04-25T07:28:47.830Z,13.30
2019-04-25T07:31:34.514Z,13.20
2019-04-25T07:34:17.825Z,13.20
2019-04-25T07:36:47.603Z,13.20
2019-04-25T07:39:17.407Z,13.20
2019-04-25T07:41:47.309Z,13.30
2019-04-25T07:44:17.265Z,13.40
2019-04-25T07:46:47.037Z,13.50
2019-04-25T07:49:16.814Z,13.60
2019-04-25T07:51:46.514Z,13.80
2019-04-25T07:54:16.155Z,14.00
2019-04-25T07:56:45.838Z,14.10
2019-04-25T07:59:15.471Z,14.20
2019-04-25T08:01:45.184Z,14.20
2019-04-25T08:07:58.662Z,14.30
2019-04-25T08:10:30.434Z,14.40
2019-04-25T08:13:00.149Z,14.40
2019-04-25T08:15:46.044Z,14.50
2019-04-25T08:18:15.767Z,14.60
2019-04-25T08:20:46.379Z,14.80
2019-04-25T08:23:16.349Z,15.00
2019-04-25T08:25:46.127Z,15.20
2019-04-25T08:28:15.903Z,15.30
2019-04-25T08:30:45.569Z,15.40
2019-04-25T08:33:15.245Z,15.50
2019-04-25T08:36:03.359Z,15.50
2019-04-25T08:38:16.399Z,15.50
2019-04-25T08:40:46.135Z,15.40
2019-04-25T08:43:15.791Z,15.30
2019-04-25T08:45:45.445Z,15.30
2019-04-25T08:48:15.401Z,15.30
2019-04-25T08:51:04.066Z,15.40
2019-04-25T08:53:41.057Z,15.60
2019-04-25T08:56:17.883Z,15.80
2019-04-25T08:59:09.639Z,16.10
2019-04-25T09:02:00.404Z,16.40
2019-04-25T09:04:44.675Z,16.50
2019-04-25T09:07:47.878Z,16.60
2019-04-25T09:10:36.844Z,16.60
2019-04-25T09:13:05.627Z,16.40
2019-04-25T09:15:36.627Z,16.10
2019-04-25T09:18:06.706Z,16.10
2019-04-25T09:20:39.609Z,16.10
2019-04-25T09:23:07.791Z,16.20
2019-04-25T09:25:37.420Z,16.30
2019-04-25T09:28:09.207Z,16.40
2019-04-25T09:30:38.897Z,16.50
2019-04-25T09:33:08.645Z,16.50
2019-04-25T09:35:38.364Z,16.50
2019-04-25T09:38:08.036Z,16.50
2019-04-25T09:40:37.686Z,16.40
2019-04-25T09:43:07.485Z,16.20
2019-04-25T09:45:43.890Z,16.20
2019-04-25T09:48:36.223Z,16.40
2019-04-25T09:51:13.777Z,16.90
2019-04-25T09:53:50.908Z,17.30
2019-04-25T09:56:29.674Z,17.30
2019-04-25T09:59:27.371Z,17.40
2019-04-25T10:01:52.776Z,17.30
2019-04-25T10:04:23.078Z,17.10
2019-04-25T10:06:53.483Z,17.20
2019-04-25T10:09:23.801Z,17.40
2019-04-25T10:11:54.655Z,17.50
2019-04-25T10:14:50.593Z,17.50
2019-04-25T10:17:20.312Z,17.60
2019-04-25T10:20:02.044Z,17.90
2019-04-25T10:22:31.851Z,18.10
2019-04-25T10:25:03.277Z,18.40
2019-04-25T10:27:33.114Z,18.40
2019-04-25T10:30:15.986Z,18.50
2019-04-25T10:32:34.335Z,18.60
2019-04-25T10:35:04.132Z,18.60
2019-04-25T10:37:35.265Z,18.60
2019-04-25T10:40:23.435Z,18.70
2019-04-25T10:42:53.793Z,18.90
2019-04-25T10:45:25.942Z,19.00
2019-04-25T10:47:56.457Z,19.20
2019-04-25T10:50:26.713Z,19.30
2019-04-25T10:52:56.462Z,19.10
2019-04-25T10:55:26.290Z,19.20
2019-04-25T10:57:59.005Z,19.50
2019-04-25T11:00:40.771Z,19.80
2019-04-25T11:03:30.687Z,20.00
2019-04-25T11:06:03.808Z,20.20
2019-04-25T11:08:34.194Z,20.10
2019-04-25T11:11:04.522Z,20.20
2019-04-25T11:13:35.432Z,20.10
2019-04-25T11:16:06.744Z,20.40
2019-04-25T11:18:36.503Z,20.40
2019-04-25T11:21:06.314Z,20.60
2019-04-25T11:23:36.049Z,20.50
2019-04-25T11:26:05.856Z,20.60
2019-04-25T11:28:35.738Z,20.80
2019-04-25T11:31:07.226Z,21.00
2019-04-25T11:33:37.061Z,21.20
2019-04-25T11:36:06.749Z,21.40
2019-04-25T11:39:01.442Z,21.40
2019-04-25T11:41:31.716Z,21.40
2019-04-25T11:44:03.307Z,21.50
2019-04-25T11:46:33.411Z,21.70
2019-04-25T11:49:04.489Z,22.10
2019-04-25T11:51:34.399Z,22.30
2019-04-25T11:54:04.179Z,22.40
2019-04-25T11:56:34.278Z,22.60
2019-04-25T11:59:04.536Z,22.40
2019-04-25T12:01:34.389Z,22.20
2019-04-25T12:04:04.382Z,22.10
2019-04-25T12:06:34.116Z,21.60
2019-04-25T12:09:04.881Z,21.30
2019-04-25T12:11:34.605Z,21.10
2019-04-25T12:14:04.393Z,21.20
2019-04-25T12:16:34.168Z,21.60
2019-04-25T12:19:04.796Z,21.90
2019-04-25T12:21:34.703Z,21.90
2019-04-25T12:24:05.804Z,21.70
2019-04-25T12:26:36.026Z,21.70
2019-04-25T12:29:05.837Z,22.30
2019-04-25T12:31:35.676Z,22.60
2019-04-25T12:34:05.535Z,22.50
2019-04-25T12:36:35.247Z,22.50
2019-04-25T12:39:07.149Z,22.40
2019-04-25T12:41:36.965Z,22.60
2019-04-25T12:44:24.472Z,22.70
2019-04-25T12:46:55.632Z,22.60
2019-04-25T12:49:25.738Z,22.20
2019-04-25T12:51:55.519Z,22.50
2019-04-25T12:54:25.341Z,22.60
2019-04-25T12:56:55.073Z,22.60
2019-04-25T12:59:24.809Z,22.40
2019-04-25T13:01:55.666Z,22.40
2019-04-25T13:04:26.417Z,22.70
2019-04-25T13:06:56.123Z,22.60
2019-04-25T13:09:25.932Z,22.70
2019-04-25T13:11:55.754Z,22.30
2019-04-25T13:14:25.559Z,22.00
2019-04-25T13:16:55.323Z,21.90
2019-04-25T13:19:26.501Z,21.80
2019-04-25T13:21:57.086Z,21.30
2019-04-25T13:24:27.581Z,20.90
2019-04-25T13:27:06.503Z,20.60
2019-04-25T13:29:58.825Z,20.40
2019-04-25T13:32:42.016Z,20.30
2019-04-25T13:35:18.446Z,20.40
2019-04-25T13:37:48.235Z,20.40
2019-04-25T13:40:18.516Z,20.30
2019-04-25T13:42:48.337Z,20.20
2019-04-25T13:45:18.572Z,20.20
2019-04-25T13:47:48.368Z,20.50
2019-04-25T13:50:18.027Z,20.70
2019-04-25T13:52:47.936Z,21.40
2019-04-25T13:55:17.828Z,22.10
2019-04-25T13:57:47.549Z,22.00
2019-04-25T14:00:18.497Z,21.80
2019-04-25T14:02:48.852Z,21.70
2019-04-25T14:05:21.191Z,21.60
2019-04-25T14:07:50.929Z,21.30
2019-04-25T14:10:21.456Z,21.20
2019-04-25T14:12:51.133Z,21.10
2019-04-25T14:15:25.122Z,21.30
2019-04-25T14:18:11.745Z,21.50
2019-04-25T14:20:45.197Z,21.60
2019-04-25T14:23:15.377Z,22.00
2019-04-25T14:25:45.225Z,22.00
2019-04-25T14:28:14.880Z,21.90
2019-04-25T14:30:44.657Z,21.60
2019-04-25T14:33:14.399Z,21.20
2019-04-25T14:35:44.185Z,20.90
2019-04-25T14:38:13.969Z,20.50
2019-04-25T14:40:43.779Z,20.20
2019-04-25T14:43:13.547Z,20.00
2019-04-25T14:45:45.107Z,19.90
2019-04-25T14:48:14.930Z,19.80
2019-04-25T14:50:44.720Z,19.70
2019-04-25T14:53:14.410Z,19.40
2019-04-25T14:56:07.410Z,19.40
2019-04-25T14:58:38.025Z,19.20
2019-04-25T15:01:08.142Z,19.00
2019-04-25T15:03:37.867Z,19.00
2019-04-25T15:06:07.645Z,18.90
2019-04-25T15:08:37.329Z,18.60
2019-04-25T15:11:07.274Z,18.40
2019-04-25T15:13:37.028Z,18.20
2019-04-25T15:16:06.894Z,18.10
2019-04-25T15:18:46.097Z,17.90
2019-04-25T15:21:07.974Z,17.80
2019-04-25T15:23:37.650Z,17.80
2019-04-25T15:26:07.394Z,17.60
2019-04-25T15:28:37.057Z,17.40
2019-04-25T15:31:06.819Z,17.30
2019-04-25T15:33:36.625Z,17.20
2019-04-25T15:36:24.754Z,17.20
2019-04-25T15:39:16.243Z,17.30
2019-04-25T15:41:57.847Z,17.50
2019-04-25T15:44:46.491Z,17.60
2019-04-25T15:47:18.622Z,17.60
2019-04-25T15:49:48.264Z,17.50
2019-04-25T15:52:18.073Z,17.30
2019-04-25T15:54:47.788Z,17.30
2019-04-25T15:57:23.553Z,17.30
2019-04-25T16:00:01.323Z,17.20
2019-04-25T16:02:31.124Z,17.10
2019-04-25T16:05:02.362Z,17.10
2019-04-25T16:07:32.112Z,17.20
2019-04-25T16:10:03.985Z,17.20
2019-04-25T16:12:37.359Z,17.20
2019-04-25T16:15:10.595Z,17.20
2019-04-25T16:17:42.554Z,17.00
2019-04-25T16:20:21.956Z,16.80
2019-04-25T16:22:47.167Z,16.80
2019-04-25T16:25:17.116Z,16.90
2019-04-25T16:27:46.868Z,16.90
2019-04-25T16:30:17.412Z,17.00
2019-04-25T16:32:47.546Z,17.00
2019-04-25T16:35:17.366Z,17.00
2019-04-25T16:37:50.068Z,17.00
2019-04-25T16:40:19.870Z,17.00
2019-04-25T16:42:50.120Z,17.00
2019-04-25T16:45:20.362Z,17.00
2019-04-25T16:47:50.187Z,17.00
2019-04-25T16:50:21.413Z,16.90
2019-04-25T16:52:51.169Z,17.10
2019-04-25T16:55:21.041Z,17.10
2019-04-25T16:57:50.885Z,17.10
2019-04-25T17:00:52.743Z,17.00
2019-04-25T17:03:24.471Z,17.00
2019-04-25T17:05:54.293Z,16.80
2019-04-25T17:08:25.133Z,16.70
2019-04-25T17:10:54.942Z,16.60
2019-04-25T17:13:25.572Z,16.50
2019-04-25T17:16:12.222Z,16.60
2019-04-25T17:18:52.116Z,16.50
2019-04-25T17:21:21.874Z,16.40
2019-04-25T17:23:51.567Z,16.30
2019-04-25T17:26:21.841Z,16.20
2019-04-25T17:28:53.227Z,16.10
2019-04-25T17:31:31.399Z,16.00
2019-04-25T17:34:09.400Z,15.80
2019-04-25T17:36:46.785Z,15.70
2019-04-25T17:39:36.161Z,15.50
2019-04-25T17:42:05.917Z,15.40
2019-04-25T17:44:36.342Z,15.40
2019-04-25T17:47:06.826Z,15.30
2019-04-25T17:49:36.873Z,15.20
2019-04-25T17:52:06.681Z,15.10
2019-04-25T17:54:36.681Z,15.00
2019-04-25T17:57:06.619Z,14.90
2019-04-25T17:59:36.889Z,14.70
2019-04-25T18:02:06.845Z,14.50
2019-04-25T18:04:36.716Z,14.50
2019-04-25T18:07:06.723Z,14.40
2019-04-25T18:09:36.832Z,14.40
2019-04-25T18:12:06.652Z,14.30
2019-04-25T18:14:36.701Z,14.20
2019-04-25T18:17:06.800Z,14.20
2019-04-25T18:26:28.189Z,14.10
2019-04-25T18:29:02.480Z,14.00
2019-04-25T18:31:32.550Z,13.90
2019-04-25T18:34:05.359Z,13.80
2019-04-25T18:36:50.296Z,13.70
2019-04-25T18:39:48.532Z,13.60
2019-04-25T18:59:59.323Z,13.30
2019-04-25T19:03:00.330Z,13.20
2019-04-25T19:05:41.066Z,13.20
2019-04-25T19:08:16.066Z,13.10
2019-04-25T19:10:49.632Z,13.10
2019-04-25T19:13:19.517Z,13.00
2019-04-25T19:15:49.248Z,13.00
2019-04-25T19:18:19.108Z,13.00
2019-04-25T19:20:48.888Z,13.00
2019-04-25T19:23:18.615Z,12.90
2019-04-25T19:25:48.435Z,12.90
2019-04-25T19:28:18.283Z,12.90
2019-04-25T19:30:48.148Z,12.80
2019-04-25T19:33:18.479Z,12.80
2019-04-25T19:35:48.277Z,12.90
2019-04-25T19:38:18.195Z,12.90
2019-04-25T19:41:13.043Z,12.90
2019-04-25T19:43:55.222Z,12.90
2019-04-25T19:46:38.976Z,12.80
2019-04-25T19:49:09.012Z,12.90
2019-04-25T19:51:38.821Z,12.80
2019-04-25T19:54:08.633Z,12.60
2019-04-25T19:56:38.466Z,12.50
2019-04-25T19:59:08.299Z,12.50
2019-04-25T20:01:38.244Z,12.40
2019-04-25T20:04:30.091Z,12.40
2019-04-25T20:07:23.459Z,12.30
2019-04-25T20:10:08.479Z,12.40
2019-04-25T20:12:45.307Z,12.50
2019-04-25T20:15:15.521Z,12.50
2019-04-25T20:17:45.926Z,12.50
2019-04-25T20:20:15.910Z,12.40
2019-04-25T20:22:46.169Z,12.40
2019-04-25T20:25:16.182Z,12.50
2019-04-25T20:27:46.710Z,12.40
2019-04-25T20:30:16.842Z,12.40
2019-04-25T20:32:47.343Z,12.30
2019-04-25T20:35:17.157Z,12.20
2019-04-25T20:37:47.457Z,12.10
2019-04-25T20:40:17.556Z,12.20
2019-04-25T20:42:48.077Z,12.20
2019-04-25T20:45:18.127Z,12.10
2019-04-25T20:47:48.047Z,12.00
2019-04-25T20:50:17.848Z,12.00
2019-04-25T20:52:48.611Z,12.10
2019-04-25T20:55:18.631Z,12.10
2019-04-25T20:57:49.357Z,12.20
2019-04-25T21:00:40.414Z,12.10
2019-04-25T21:03:10.299Z,12.10
2019-04-25T21:05:40.370Z,12.10
2019-04-25T21:08:10.184Z,12.10
2019-04-25T21:10:40.057Z,12.10
2019-04-25T21:13:13.917Z,12.00
2019-04-25T21:16:02.692Z,12.00
2019-04-25T21:18:39.539Z,12.00
2019-04-25T21:21:09.351Z,12.10
2019-04-25T21:23:39.032Z,12.10
2019-04-25T21:26:08.812Z,12.10
2019-04-25T21:28:38.699Z,12.10
2019-04-25T21:31:08.589Z,12.10
2019-04-25T21:33:38.395Z,12.10
2019-04-25T21:36:08.233Z,12.10
2019-04-25T21:38:38.229Z,12.10
2019-04-25T21:41:32.945Z,12.00
2019-04-25T21:44:05.097Z,12.00
2019-04-25T21:46:35.049Z,12.00
2019-04-25T21:49:05.160Z,12.10
2019-04-25T21:51:34.857Z,12.10
2019-04-25T21:54:04.941Z,12.10
2019-04-25T21:56:35.035Z,12.10
2019-04-25T21:59:04.762Z,12.10
2019-04-25T22:01:38.806Z,12.10
2019-04-25T22:04:08.865Z,12.10
2019-04-25T22:06:38.868Z,12.00
2019-04-25T22:09:15.814Z,12.00
2019-04-25T22:11:46.021Z,12.00
2019-04-25T22:14:16.351Z,11.90
2019-04-25T22:16:46.681Z,12.00
2019-04-25T22:19:17.018Z,12.00
2019-04-25T22:21:47.258Z,12.00
2019-04-25T22:24:17.153Z,12.00
2019-04-25T22:26:49.598Z,12.00
2019-04-25T22:29:19.412Z,11.90
2019-04-25T22:32:05.563Z,12.00
2019-04-25T22:34:52.237Z,11.90
2019-04-25T22:37:15.248Z,11.90
2019-04-25T22:39:45.376Z,11.80
2019-04-25T22:42:15.106Z,11.80
2019-04-25T22:44:44.993Z,11.90
2019-04-25T22:47:17.523Z,11.90
2019-04-25T22:49:46.194Z,12.00
2019-04-25T22:52:16.249Z,12.00
2019-04-25T22:54:46.123Z,12.00
2019-04-25T22:57:16.138Z,12.00
2019-04-25T22:59:46.320Z,12.00
2019-04-25T23:02:28.883Z,12.00
2019-04-25T23:05:12.100Z,12.00
2019-04-25T23:07:40.305Z,12.00
2019-04-25T23:10:10.320Z,12.00
2019-04-25T23:12:40.272Z,12.00
2019-04-25T23:15:11.004Z,12.00
2019-04-25T23:17:40.813Z,11.90
2019-04-25T23:20:11.702Z,11.90
2019-04-25T23:22:41.767Z,11.90
2019-04-25T23:25:14.134Z,11.90
2019-04-25T23:28:11.880Z,11.90
2019-04-25T23:30:59.422Z,11.80
2019-04-25T23:33:29.304Z,11.80
2019-04-25T23:35:59.469Z,11.90
2019-04-25T23:38:29.409Z,11.80
2019-04-25T23:40:59.290Z,11.80
2019-04-25T23:43:29.195Z,11.90
2019-04-25T23:45:59.040Z,11.90
2019-04-25T23:48:29.089Z,11.90
2019-04-25T23:50:58.833Z,11.90
2019-04-25T23:53:28.815Z,11.90
2019-04-25T23:55:58.639Z,11.90
2019-04-25T23:58:28.485Z,11.90
